LICZ

Details ICAO LICZ (NSY)
Name SIGONELLA
Region Italy
Timezone Europe/Rome (UTC+1.0)
Plans Departing 46
Arriving 48
Stats Elevation 79 ft / 24 m (AMSL)
Location 37.402588° 14.922481°
Runways 2
Magnetic Variation 3.190° E
Sunrise 2017-12-16 06:09:28 UTC / 2017-12-16 07:09:28 Local
Sunset 2017-12-16 15:45:09 UTC / 2017-12-16 16:45:09 Local
Advertisement - Login to hide

Runways

ID Width Length Bearing (true) Bearing (mag) Surface Threshold Offset Overrun Length
10L 98 ft / 30 m 7,997 ft / 2,437 m 98.38° 95.19° Asphalt 146 ft / 45 m 0 ft / 0 m
10R 148 ft / 45 m 8,060 ft / 2,457 m 98.27° 95.08° Asphalt 343 ft / 105 m 760 ft / 232 m
28L 148 ft / 45 m 8,060 ft / 2,457 m 278.29° 275.10° Asphalt 349 ft / 106 m 704 ft / 215 m
28R 98 ft / 30 m 7,997 ft / 2,437 m 278.40° 275.21° Asphalt 139 ft / 42 m 0 ft / 0 m

Map

Weather


0- 5 10 15 20 25 30 35+ Temperature / ° C

Clouds and Precipitation
Forecast for 2017-12-17 00:00 UTC. Updated an hour ago

Ground ~20,000 ft ~40,000 ft Winds

METAR

LICZ 161955Z 27008KT 9999 FEW030 SCT060 11/11 Q1011 RMK BKN VIS MIN 9999 WIND THR28 28008KT WIND THR10 26007KT A2987 BLU

TAF

Not found

Frequencies

Ground 121.95 MHz GND
Tower 118.05 MHz TWR
Approach 120.80 MHz CATANIA DIRECTOR
Tower 122.10 MHz TWR
Approach 119.25 MHz CATANIA APP
Warning: Do not use this data for real-world aviation or navigation. No guarantee of current accuracy is given.